sensor_id;sensor_type;location;lat;lon;timestamp;pressure;altitude;pressure_sealevel;temperature;humidity
8280;BME280;8335;42.646;23.380;2023-04-10T00:00:44;143360.28;;;7.14;81.86
8280;BME280;8335;42.646;23.380;2023-04-10T00:03:12;143361.56;;;7.14;80.19
8280;BME280;8335;42.646;23.380;2023-04-10T00:05:39;143349.16;;;7.09;78.69
8280;BME280;8335;42.646;23.380;2023-04-10T00:08:05;143360.28;;;7.14;78.58
8280;BME280;8335;42.646;23.380;2023-04-10T00:10:34;143354.09;;;7.11;76.94
8280;BME280;8335;42.646;23.380;2023-04-10T00:13:00;143354.09;;;7.11;76.55
8280;BME280;8335;42.646;23.380;2023-04-10T00:15:29;143336.75;;;7.04;74.68
8280;BME280;8335;42.646;23.380;2023-04-10T00:17:56;143333.03;;;7.03;75.57
8280;BME280;8335;42.646;23.380;2023-04-10T00:20:23;143354.09;;;7.11;74.38
8280;BME280;8335;42.646;23.380;2023-04-10T00:22:50;143352.84;;;7.11;73.34
8280;BME280;8335;42.646;23.380;2023-04-10T00:25:17;143371.44;;;7.18;73.19
8280;BME280;8335;42.646;23.380;2023-04-10T00:27:45;143352.84;;;7.11;73.31
8280;BME280;8335;42.646;23.380;2023-04-10T00:30:12;143354.09;;;7.11;72.79
8280;BME280;8335;42.646;23.380;2023-04-10T00:32:39;143354.09;;;7.11;72.19
8280;BME280;8335;42.646;23.380;2023-04-10T00:35:07;143350.38;;;7.10;71.01
8280;BME280;8335;42.646;23.380;2023-04-10T00:37:34;143337.97;;;7.05;70.88
8280;BME280;8335;42.646;23.380;2023-04-10T00:40:01;143361.56;;;7.14;70.92
8280;BME280;8335;42.646;23.380;2023-04-10T00:42:28;143366.50;;;7.16;70.38
8280;BME280;8335;42.646;23.380;2023-04-10T00:44:56;143362.78;;;7.15;69.76
8280;BME280;8335;42.646;23.380;2023-04-10T00:47:23;143362.78;;;7.15;69.90
8280;BME280;8335;42.646;23.380;2023-04-10T00:49:50;143362.78;;;7.15;71.63
8280;BME280;8335;42.646;23.380;2023-04-10T00:52:17;143355.34;;;7.12;72.47
8280;BME280;8335;42.646;23.380;2023-04-10T00:54:44;143282.22;;;6.82;72.09
8280;BME280;8335;42.646;23.380;2023-04-10T00:57:11;143339.22;;;7.05;73.20
8280;BME280;8335;42.646;23.380;2023-04-10T00:59:38;143356.56;;;7.12;74.14
8280;BME280;8335;42.646;23.380;2023-04-10T01:02:06;143349.16;;;7.09;73.93
8280;BME280;8335;42.646;23.380;2023-04-10T01:04:34;143362.78;;;7.15;73.89
8280;BME280;8335;42.646;23.380;2023-04-10T01:07:06;143380.16;;;7.22;75.09
8280;BME280;8335;42.646;23.380;2023-04-10T01:09:40;143397.50;;;7.29;74.55
8280;BME280;8335;42.646;23.380;2023-04-10T01:12:24;143404.91;;;7.32;74.89
8280;BME280;8335;42.646;23.380;2023-04-10T01:15:03;143426.00;;;7.41;73.68
8280;BME280;8335;42.646;23.380;2023-04-10T01:17:40;143433.44;;;7.44;74.55
8280;BME280;8335;42.646;23.380;2023-04-10T01:20:12;143448.34;;;7.50;74.14
8280;BME280;8335;42.646;23.380;2023-04-10T01:22:48;143463.19;;;7.56;74.46
8280;BME280;8335;42.646;23.380;2023-04-10T01:25:37;143426.00;;;7.41;74.84
8280;BME280;8335;42.646;23.380;2023-04-10T01:30:57;143426.00;;;7.41;75.42
8280;BME280;8335;42.646;23.380;2023-04-10T01:33:37;143459.47;;;7.55;75.81
8280;BME280;8335;42.646;23.380;2023-04-10T01:36:06;143459.47;;;7.55;76.06
8280;BME280;8335;42.646;23.380;2023-04-10T01:38:34;143460.72;;;7.55;75.66
8280;BME280;8335;42.646;23.380;2023-04-10T01:41:03;143463.19;;;7.56;75.58
8280;BME280;8335;42.646;23.380;2023-04-10T01:43:31;143454.53;;;7.53;76.82
8280;BME280;8335;42.646;23.380;2023-04-10T01:46:02;143453.28;;;7.52;77.28
8280;BME280;8335;42.646;23.380;2023-04-10T01:48:29;143460.72;;;7.55;77.78
8280;BME280;8335;42.646;23.380;2023-04-10T01:50:57;143459.47;;;7.55;77.33
8280;BME280;8335;42.646;23.380;2023-04-10T01:53:25;143463.19;;;7.56;77.66
8280;BME280;8335;42.646;23.380;2023-04-10T01:55:52;143448.34;;;7.50;78.52
8280;BME280;8335;42.646;23.380;2023-04-10T01:58:19;143427.22;;;7.41;79.10
8280;BME280;8335;42.646;23.380;2023-04-10T02:00:46;143430.97;;;7.43;79.06
8280;BME280;8335;42.646;23.380;2023-04-10T02:03:14;143438.41;;;7.46;79.44
8280;BME280;8335;42.646;23.380;2023-04-10T02:05:50;143442.09;;;7.48;79.61
8280;BME280;8335;42.646;23.380;2023-04-10T02:08:22;143450.81;;;7.51;79.59
8280;BME280;8335;42.646;23.380;2023-04-10T02:10:57;143404.91;;;7.32;79.86
8280;BME280;8335;42.646;23.380;2023-04-10T02:13:27;143449.56;;;7.51;79.57
8280;BME280;8335;42.646;23.380;2023-04-10T02:15:55;143435.94;;;7.45;79.54
8280;BME280;8335;42.646;23.380;2023-04-10T02:18:26;143489.25;;;7.67;78.46
8280;BME280;8335;42.646;23.380;2023-04-10T02:20:54;143502.91;;;7.72;77.59
8280;BME280;8335;42.646;23.380;2023-04-10T02:23:21;143507.84;;;7.75;76.98
8280;BME280;8335;42.646;23.380;2023-04-10T02:25:49;143523.97;;;7.81;76.49
8280;BME280;8335;42.646;23.380;2023-04-10T02:28:15;143526.44;;;7.82;76.99
8280;BME280;8335;42.646;23.380;2023-04-10T02:30:42;143519.03;;;7.79;76.55
8280;BME280;8335;42.646;23.380;2023-04-10T02:33:09;143521.50;;;7.80;76.73
8280;BME280;8335;42.646;23.380;2023-04-10T02:35:37;143516.50;;;7.78;76.37
8280;BME280;8335;42.646;23.380;2023-04-10T02:38:04;143522.72;;;7.81;76.34
8280;BME280;8335;42.646;23.380;2023-04-10T02:40:30;143526.44;;;7.82;75.46
8280;BME280;8335;42.646;23.380;2023-04-10T02:42:57;143521.50;;;7.80;75.32
8280;BME280;8335;42.646;23.380;2023-04-10T02:45:24;143520.25;;;7.80;75.66
8280;BME280;8335;42.646;23.380;2023-04-10T02:47:51;143517.78;;;7.79;76.90
8280;BME280;8335;42.646;23.380;2023-04-10T02:50:17;143512.78;;;7.77;77.14
8280;BME280;8335;42.646;23.380;2023-04-10T02:52:45;143516.50;;;7.78;77.20
8280;BME280;8335;42.646;23.380;2023-04-10T02:55:12;143516.50;;;7.78;76.67
8280;BME280;8335;42.646;23.380;2023-04-10T02:57:39;143504.13;;;7.73;77.10
8280;BME280;8335;42.646;23.380;2023-04-10T03:00:08;143489.25;;;7.67;77.44
8280;BME280;8335;42.646;23.380;2023-04-10T03:02:34;143473.13;;;7.60;78.81
8280;BME280;8335;42.646;23.380;2023-04-10T03:05:01;143440.88;;;7.47;79.34
8280;BME280;8335;42.646;23.380;2023-04-10T03:07:28;143416.09;;;7.37;80.13
8280;BME280;8335;42.646;23.380;2023-04-10T03:09:57;143391.28;;;7.27;81.37
8280;BME280;8335;42.646;23.380;2023-04-10T03:12:24;143381.38;;;7.23;81.81
8280;BME280;8335;42.646;23.380;2023-04-10T03:14:51;143375.16;;;7.20;81.86
8280;BME280;8335;42.646;23.380;2023-04-10T03:17:18;143367.75;;;7.17;82.86
8280;BME280;8335;42.646;23.380;2023-04-10T03:19:44;143360.28;;;7.14;82.17
8280;BME280;8335;42.646;23.380;2023-04-10T03:22:11;143346.69;;;7.08;83.14
8280;BME280;8335;42.646;23.380;2023-04-10T03:24:38;143325.56;;;7.00;83.07
8280;BME280;8335;42.646;23.380;2023-04-10T03:27:06;143315.69;;;6.96;83.13
8280;BME280;8335;42.646;23.380;2023-04-10T03:29:33;143315.69;;;6.96;83.19
8280;BME280;8335;42.646;23.380;2023-04-10T03:32:00;143294.63;;;6.87;83.02
8280;BME280;8335;42.646;23.380;2023-04-10T03:34:26;143320.63;;;6.98;82.80
8280;BME280;8335;42.646;23.380;2023-04-10T03:36:53;143302.03;;;6.90;82.43
8280;BME280;8335;42.646;23.380;2023-04-10T03:39:20;143315.69;;;6.96;83.08
8280;BME280;8335;42.646;23.380;2023-04-10T03:41:47;143310.72;;;6.94;82.67
8280;BME280;8335;42.646;23.380;2023-04-10T03:44:16;143304.50;;;6.91;83.00
8280;BME280;8335;42.646;23.380;2023-04-10T03:46:43;143300.78;;;6.89;83.98
8280;BME280;8335;42.646;23.380;2023-04-10T03:49:09;143282.22;;;6.82;85.43
8280;BME280;8335;42.646;23.380;2023-04-10T03:51:36;143285.94;;;6.83;84.64
8280;BME280;8335;42.646;23.380;2023-04-10T03:54:03;143298.31;;;6.88;84.80
8280;BME280;8335;42.646;23.380;2023-04-10T03:56:29;143308.22;;;6.93;84.82
8280;BME280;8335;42.646;23.380;2023-04-10T03:58:56;143310.72;;;6.94;84.56
8280;BME280;8335;42.646;23.380;2023-04-10T04:01:24;143292.16;;;6.86;85.96
8280;BME280;8335;42.646;23.380;2023-04-10T04:03:51;143276.03;;;6.79;86.83
8280;BME280;8335;42.646;23.380;2023-04-10T04:06:18;143248.75;;;6.68;87.26
8280;BME280;8335;42.646;23.380;2023-04-10T04:08:44;143257.44;;;6.72;87.88
8280;BME280;8335;42.646;23.380;2023-04-10T04:11:11;143287.16;;;6.84;87.42
8280;BME280;8335;42.646;23.380;2023-04-10T04:13:38;143313.22;;;6.95;87.78
8280;BME280;8335;42.646;23.380;2023-04-10T04:16:06;143334.25;;;7.03;86.50
8280;BME280;8335;42.646;23.380;2023-04-10T04:18:34;143368.97;;;7.17;86.21
8280;BME280;8335;42.646;23.380;2023-04-10T04:21:01;143404.91;;;7.32;85.99
8280;BME280;8335;42.646;23.380;2023-04-10T04:23:27;143434.69;;;7.44;84.54
8280;BME280;8335;42.646;23.380;2023-04-10T04:25:55;143428.47;;;7.42;84.19
8280;BME280;8335;42.646;23.380;2023-04-10T04:28:23;143509.09;;;7.75;84.52
8280;BME280;8335;42.646;23.380;2023-04-10T04:30:50;143551.22;;;7.92;84.35
8280;BME280;8335;42.646;23.380;2023-04-10T04:33:16;143573.59;;;8.02;82.51
8280;BME280;8335;42.646;23.380;2023-04-10T04:35:44;143804.44;;;8.96;80.27
8280;BME280;8335;42.646;23.380;2023-04-10T04:38:11;144028.00;;;9.88;76.45
8280;BME280;8335;42.646;23.380;2023-04-10T04:40:38;144156.03;;;10.40;73.20
8280;BME280;8335;42.646;23.380;2023-04-10T04:43:04;144343.78;;;11.17;70.34
8280;BME280;8335;42.646;23.380;2023-04-10T04:45:31;144483.13;;;11.74;67.70
8280;BME280;8335;42.646;23.380;2023-04-10T04:47:58;144575.25;;;12.12;65.39
8280;BME280;8335;42.646;23.380;2023-04-10T04:50:25;144598.91;;;12.22;64.99
8280;BME280;8335;42.646;23.380;2023-04-10T04:52:53;144607.59;;;12.25;64.88
8280;BME280;8335;42.646;23.380;2023-04-10T04:55:19;144606.38;;;12.25;64.91
8280;BME280;8335;42.646;23.380;2023-04-10T04:57:46;144702.22;;;12.64;64.67
8280;BME280;8335;42.646;23.380;2023-04-10T05:00:13;144884.13;;;13.38;62.03
8280;BME280;8335;42.646;23.380;2023-04-10T05:02:40;145031.16;;;13.98;58.92
8280;BME280;8335;42.646;23.380;2023-04-10T05:05:07;145187.06;;;14.62;56.69
8280;BME280;8335;42.646;23.380;2023-04-10T05:07:34;145345.47;;;15.27;54.23
8280;BME280;8335;42.646;23.380;2023-04-10T05:10:03;145470.31;;;15.78;52.44
8280;BME280;8335;42.646;23.380;2023-04-10T05:12:29;145602.69;;;16.32;50.42
8280;BME280;8335;42.646;23.380;2023-04-10T05:14:56;145621.41;;;16.39;49.43
8280;BME280;8335;42.646;23.380;2023-04-10T05:17:23;145522.75;;;15.99;49.98
8280;BME280;8335;42.646;23.380;2023-04-10T05:19:50;145445.38;;;15.67;51.38
8280;BME280;8335;42.646;23.380;2023-04-10T05:22:16;145417.84;;;15.56;51.63
8280;BME280;8335;42.646;23.380;2023-04-10T05:24:43;145389.19;;;15.45;51.71
8280;BME280;8335;42.646;23.380;2023-04-10T05:27:11;145406.66;;;15.52;51.37
8280;BME280;8335;42.646;23.380;2023-04-10T05:29:38;145377.94;;;15.40;51.54
8280;BME280;8335;42.646;23.380;2023-04-10T05:32:04;145251.94;;;14.89;52.12
8280;BME280;8335;42.646;23.380;2023-04-10T05:34:31;145224.47;;;14.77;53.26
8280;BME280;8335;42.646;23.380;2023-04-10T05:36:58;145150.91;;;14.47;53.82
8280;BME280;8335;42.646;23.380;2023-04-10T05:39:25;145077.31;;;14.17;54.92
8280;BME280;8335;42.646;23.380;2023-04-10T05:41:51;145011.22;;;13.90;55.48
8280;BME280;8335;42.646;23.380;2023-04-10T05:44:19;144978.81;;;13.77;56.14
8280;BME280;8335;42.646;23.380;2023-04-10T05:46:46;145011.22;;;13.90;56.02
8280;BME280;8335;42.646;23.380;2023-04-10T05:49:13;145033.66;;;13.99;55.65
8280;BME280;8335;42.646;23.380;2023-04-10T05:51:41;145044.88;;;14.04;55.10
8280;BME280;8335;42.646;23.380;2023-04-10T05:54:07;145029.91;;;13.98;54.69
8280;BME280;8335;42.646;23.380;2023-04-10T05:56:34;144980.06;;;13.77;55.27
8280;BME280;8335;42.646;23.380;2023-04-10T05:59:01;144914.06;;;13.51;56.05
8280;BME280;8335;42.646;23.380;2023-04-10T06:01:29;144877.88;;;13.36;56.32
8280;BME280;8335;42.646;23.380;2023-04-10T06:03:56;144821.78;;;13.13;57.19
8280;BME280;8335;42.646;23.380;2023-04-10T06:06:23;144758.28;;;12.87;58.05
8280;BME280;8335;42.646;23.380;2023-04-10T06:08:50;144735.84;;;12.78;59.02
8280;BME280;8335;42.646;23.380;2023-04-10T06:11:17;144709.72;;;12.67;59.48
8280;BME280;8335;42.646;23.380;2023-04-10T06:13:44;144676.09;;;12.53;59.94
8280;BME280;8335;42.646;23.380;2023-04-10T06:16:10;144648.69;;;12.42;61.26
8280;BME280;8335;42.646;23.380;2023-04-10T06:18:40;144625.03;;;12.32;61.45
8280;BME280;8335;42.646;23.380;2023-04-10T06:21:07;144585.22;;;12.16;61.97
8280;BME280;8335;42.646;23.380;2023-04-10T06:23:34;144590.19;;;12.18;61.97
8280;BME280;8335;42.646;23.380;2023-04-10T06:26:01;144554.09;;;12.03;62.54
8280;BME280;8335;42.646;23.380;2023-04-10T06:28:28;144488.09;;;11.76;63.53
8280;BME280;8335;42.646;23.380;2023-04-10T06:30:55;144415.91;;;11.47;63.65
8280;BME280;8335;42.646;23.380;2023-04-10T06:33:22;144448.28;;;11.60;64.35
8280;BME280;8335;42.646;23.380;2023-04-10T06:35:50;144440.78;;;11.57;64.46
8280;BME280;8335;42.646;23.380;2023-04-10T06:38:16;144422.13;;;11.49;64.64
8280;BME280;8335;42.646;23.380;2023-04-10T06:40:43;144338.81;;;11.15;65.96
8280;BME280;8335;42.646;23.380;2023-04-10T06:43:10;144312.69;;;11.05;65.87
8280;BME280;8335;42.646;23.380;2023-04-10T06:45:37;144297.75;;;10.98;66.50
8280;BME280;8335;42.646;23.380;2023-04-10T06:48:04;144295.28;;;10.97;66.97
8280;BME280;8335;42.646;23.380;2023-04-10T06:50:31;144282.81;;;10.92;66.93
8280;BME280;8335;42.646;23.380;2023-04-10T06:52:59;144289.06;;;10.95;67.21
8280;BME280;8335;42.646;23.380;2023-04-10T06:55:26;144248.00;;;10.78;68.40
8280;BME280;8335;42.646;23.380;2023-04-10T06:57:53;144260.47;;;10.83;68.06
8280;BME280;8335;42.646;23.380;2023-04-10T07:00:21;144300.22;;;10.99;67.30
8280;BME280;8335;42.646;23.380;2023-04-10T07:02:48;144312.69;;;11.05;66.89
8280;BME280;8335;42.646;23.380;2023-04-10T07:05:15;144282.81;;;10.92;66.96
8280;BME280;8335;42.646;23.380;2023-04-10T07:07:42;144310.19;;;11.03;66.95
8280;BME280;8335;42.646;23.380;2023-04-10T07:10:10;144291.56;;;10.96;67.55
8280;BME280;8335;42.646;23.380;2023-04-10T07:12:38;144262.94;;;10.84;68.13
8280;BME280;8335;42.646;23.380;2023-04-10T07:15:06;144235.63;;;10.73;68.27
8280;BME280;8335;42.646;23.380;2023-04-10T07:17:33;144200.81;;;10.59;69.02
8280;BME280;8335;42.646;23.380;2023-04-10T07:19:59;144123.72;;;10.27;69.26
8280;BME280;8335;42.646;23.380;2023-04-10T07:22:26;144178.41;;;10.50;70.09
8280;BME280;8335;42.646;23.380;2023-04-10T07:24:53;144132.44;;;10.31;70.58
8280;BME280;8335;42.646;23.380;2023-04-10T07:27:22;144073.94;;;10.07;71.42
8280;BME280;8335;42.646;23.380;2023-04-10T07:29:49;144052.84;;;9.98;72.48
8280;BME280;8335;42.646;23.380;2023-04-10T07:32:15;144028.00;;;9.88;72.63
8280;BME280;8335;42.646;23.380;2023-04-10T07:34:42;144030.47;;;9.89;72.77
8280;BME280;8335;42.646;23.380;2023-04-10T07:37:09;144067.75;;;10.04;72.37
8280;BME280;8335;42.646;23.380;2023-04-10T07:39:36;144070.22;;;10.05;72.56
8280;BME280;8335;42.646;23.380;2023-04-10T07:42:02;144111.28;;;10.22;71.72
8280;BME280;8335;42.646;23.380;2023-04-10T07:44:31;144148.59;;;10.37;71.58
8280;BME280;8335;42.646;23.380;2023-04-10T07:46:57;144170.97;;;10.46;70.94
8280;BME280;8335;42.646;23.380;2023-04-10T07:49:24;144211.97;;;10.63;70.61
8280;BME280;8335;42.646;23.380;2023-04-10T07:51:51;144245.53;;;10.77;70.16
8280;BME280;8335;42.646;23.380;2023-04-10T07:54:18;144286.59;;;10.94;69.63
8280;BME280;8335;42.646;23.380;2023-04-10T07:56:45;144282.81;;;10.92;69.23
8280;BME280;8335;42.646;23.380;2023-04-10T07:59:11;144256.75;;;10.82;69.41
8280;BME280;8335;42.646;23.380;2023-04-10T08:01:39;144228.13;;;10.70;69.99
8280;BME280;8335;42.646;23.380;2023-04-10T08:04:06;144231.84;;;10.71;69.72
8280;BME280;8335;42.646;23.380;2023-04-10T08:06:33;144228.13;;;10.70;69.72
8280;BME280;8335;42.646;23.380;2023-04-10T08:09:00;144234.38;;;10.72;69.94
8280;BME280;8335;42.646;23.380;2023-04-10T08:11:29;144230.59;;;10.71;70.39
8280;BME280;8335;42.646;23.380;2023-04-10T08:13:57;144182.16;;;10.51;70.99
8280;BME280;8335;42.646;23.380;2023-04-10T08:16:26;144189.59;;;10.54;71.26
8280;BME280;8335;42.646;23.380;2023-04-10T08:18:56;144153.56;;;10.39;71.97
8280;BME280;8335;42.646;23.380;2023-04-10T08:21:23;144220.69;;;10.67;71.25
8280;BME280;8335;42.646;23.380;2023-04-10T08:23:52;144279.09;;;10.91;69.91
8280;BME280;8335;42.646;23.380;2023-04-10T08:26:19;144320.19;;;11.08;69.29
8280;BME280;8335;42.646;23.380;2023-04-10T08:28:47;144338.81;;;11.15;68.52
8280;BME280;8335;42.646;23.380;2023-04-10T08:31:15;144347.50;;;11.19;68.63
8280;BME280;8335;42.646;23.380;2023-04-10T08:33:42;144333.81;;;11.13;68.61
8280;BME280;8335;42.646;23.380;2023-04-10T08:36:11;144345.03;;;11.18;68.31
8280;BME280;8335;42.646;23.380;2023-04-10T08:38:40;144323.91;;;11.09;68.63
8280;BME280;8335;42.646;23.380;2023-04-10T08:41:09;144304.00;;;11.01;69.46
8280;BME280;8335;42.646;23.380;2023-04-10T08:43:35;144279.09;;;10.91;69.79
8280;BME280;8335;42.646;23.380;2023-04-10T08:46:02;144246.78;;;10.78;70.30
8280;BME280;8335;42.646;23.380;2023-04-10T08:48:34;144197.03;;;10.57;70.58
8280;BME280;8335;42.646;23.380;2023-04-10T08:51:03;144266.66;;;10.86;69.79
8280;BME280;8335;42.646;23.380;2023-04-10T08:53:37;144290.31;;;10.95;69.48
8280;BME280;8335;42.646;23.380;2023-04-10T08:56:06;144304.00;;;11.01;69.47
8280;BME280;8335;42.646;23.380;2023-04-10T08:58:34;144282.81;;;10.92;69.89
8280;BME280;8335;42.646;23.380;2023-04-10T09:01:03;144307.72;;;11.02;68.89
8280;BME280;8335;42.646;23.380;2023-04-10T09:03:31;144254.25;;;10.81;69.04
8280;BME280;8335;42.646;23.380;2023-04-10T09:06:01;144240.56;;;10.75;70.21
8280;BME280;8335;42.646;23.380;2023-04-10T09:08:28;144253.03;;;10.80;70.08
8280;BME280;8335;42.646;23.380;2023-04-10T09:10:56;144241.81;;;10.75;70.23
8280;BME280;8335;42.646;23.380;2023-04-10T09:13:37;144262.94;;;10.84;69.65
8280;BME280;8335;42.646;23.380;2023-04-10T09:16:05;144271.66;;;10.88;69.48
8280;BME280;8335;42.646;23.380;2023-04-10T09:18:43;144286.59;;;10.94;69.63
8280;BME280;8335;42.646;23.380;2023-04-10T09:21:13;144224.41;;;10.68;68.99
8280;BME280;8335;42.646;23.380;2023-04-10T09:23:41;144233.13;;;10.72;69.35
8280;BME280;8335;42.646;23.380;2023-04-10T09:26:28;144261.69;;;10.84;70.27
8280;BME280;8335;42.646;23.380;2023-04-10T09:28:59;144285.34;;;10.93;69.51
8280;BME280;8335;42.646;23.380;2023-04-10T09:31:31;144296.50;;;10.98;68.00
8280;BME280;8335;42.646;23.380;2023-04-10T09:34:11;144280.34;;;10.91;68.66
8280;BME280;8335;42.646;23.380;2023-04-10T09:36:39;144304.00;;;11.01;68.35
8280;BME280;8335;42.646;23.380;2023-04-10T09:39:08;144299.00;;;10.99;68.21
8280;BME280;8335;42.646;23.380;2023-04-10T09:41:46;144305.25;;;11.01;68.39
8280;BME280;8335;42.646;23.380;2023-04-10T09:44:13;144255.50;;;10.81;69.43
8280;BME280;8335;42.646;23.380;2023-04-10T09:46:40;144214.44;;;10.64;69.86
8280;BME280;8335;42.646;23.380;2023-04-10T09:49:06;144230.59;;;10.71;70.10
8280;BME280;8335;42.646;23.380;2023-04-10T09:51:34;144225.66;;;10.69;70.76
8280;BME280;8335;42.646;23.380;2023-04-10T09:54:03;144265.41;;;10.85;67.75
8280;BME280;8335;42.646;23.380;2023-04-10T09:56:33;144387.28;;;11.35;67.48
8280;BME280;8335;42.646;23.380;2023-04-10T09:59:05;144430.88;;;11.53;67.37
8280;BME280;8335;42.646;23.380;2023-04-10T10:01:32;144443.31;;;11.58;63.39
8280;BME280;8335;42.646;23.380;2023-04-10T10:04:01;144355.00;;;11.22;63.10
8280;BME280;8335;42.646;23.380;2023-04-10T10:06:29;144338.81;;;11.15;64.24
8280;BME280;8335;42.646;23.380;2023-04-10T10:08:57;144372.41;;;11.29;63.34
8280;BME280;8335;42.646;23.380;2023-04-10T10:11:27;144353.72;;;11.21;63.29
8280;BME280;8335;42.646;23.380;2023-04-10T10:13:55;144376.13;;;11.30;63.94
8280;BME280;8335;42.646;23.380;2023-04-10T10:16:32;144356.25;;;11.22;62.84
8280;BME280;8335;42.646;23.380;2023-04-10T10:19:05;144305.25;;;11.01;62.99
8280;BME280;8335;42.646;23.380;2023-04-10T10:21:35;144313.94;;;11.05;63.58
8280;BME280;8335;42.646;23.380;2023-04-10T10:24:06;144331.34;;;11.12;63.88
8280;BME280;8335;42.646;23.380;2023-04-10T10:26:34;144388.53;;;11.36;62.56
8280;BME280;8335;42.646;23.380;2023-04-10T10:29:03;144469.41;;;11.69;60.92
8280;BME280;8335;42.646;23.380;2023-04-10T10:31:32;144561.53;;;12.06;60.54
8280;BME280;8335;42.646;23.380;2023-04-10T10:34:02;144612.56;;;12.27;60.30
8280;BME280;8335;42.646;23.380;2023-04-10T10:36:32;144677.31;;;12.54;59.01
8280;BME280;8335;42.646;23.380;2023-04-10T10:39:08;144727.16;;;12.74;58.12
8280;BME280;8335;42.646;23.380;2023-04-10T10:41:45;144754.50;;;12.85;56.72
8280;BME280;8335;42.646;23.380;2023-04-10T10:44:18;144719.66;;;12.71;57.62
8280;BME280;8335;42.646;23.380;2023-04-10T10:46:52;144635.00;;;12.36;58.80
8280;BME280;8335;42.646;23.380;2023-04-10T10:49:50;144649.91;;;12.43;58.19
8280;BME280;8335;42.646;23.380;2023-04-10T10:52:35;144639.97;;;12.38;58.89
8280;BME280;8335;42.646;23.380;2023-04-10T10:55:26;144607.59;;;12.25;59.30
8280;BME280;8335;42.646;23.380;2023-04-10T10:57:57;144697.25;;;12.62;60.35
8280;BME280;8335;42.646;23.380;2023-04-10T11:00:25;144805.56;;;13.06;56.38
8280;BME280;8335;42.646;23.380;2023-04-10T11:03:27;144926.47;;;13.56;55.11
8280;BME280;8335;42.646;23.380;2023-04-10T11:05:55;145008.75;;;13.89;52.46
8280;BME280;8335;42.646;23.380;2023-04-10T11:08:35;145082.28;;;14.19;52.05
8280;BME280;8335;42.646;23.380;2023-04-10T11:11:05;145117.19;;;14.33;51.57
8280;BME280;8335;42.646;23.380;2023-04-10T11:13:33;145086.00;;;14.21;51.33
8280;BME280;8335;42.646;23.380;2023-04-10T11:16:01;145113.47;;;14.32;51.23
8280;BME280;8335;42.646;23.380;2023-04-10T11:19:07;145069.78;;;14.14;52.04
8280;BME280;8335;42.646;23.380;2023-04-10T11:22:00;144998.75;;;13.85;50.44
8280;BME280;8335;42.646;23.380;2023-04-10T11:24:28;144960.13;;;13.69;50.82
8280;BME280;8335;42.646;23.380;2023-04-10T11:26:55;144912.75;;;13.50;51.84
8280;BME280;8335;42.646;23.380;2023-04-10T11:29:32;144810.59;;;13.08;52.62
8280;BME280;8335;42.646;23.380;2023-04-10T11:32:01;144774.47;;;12.93;55.47
8280;BME280;8335;42.646;23.380;2023-04-10T11:34:29;144747.06;;;12.82;56.21
8280;BME280;8335;42.646;23.380;2023-04-10T11:36:58;144732.09;;;12.76;56.90
8280;BME280;8335;42.646;23.380;2023-04-10T11:39:25;144760.78;;;12.88;56.88
8280;BME280;8335;42.646;23.380;2023-04-10T11:41:53;144781.94;;;12.97;57.34
8280;BME280;8335;42.646;23.380;2023-04-10T11:44:27;144785.66;;;12.98;56.93
8280;BME280;8335;42.646;23.380;2023-04-10T11:46:54;144717.16;;;12.70;55.70
8280;BME280;8335;42.646;23.380;2023-04-10T11:49:24;144742.09;;;12.80;56.59
8280;BME280;8335;42.646;23.380;2023-04-10T11:51:54;144786.91;;;12.99;56.42
8280;BME280;8335;42.646;23.380;2023-04-10T11:54:22;144784.41;;;12.98;56.15
8280;BME280;8335;42.646;23.380;2023-04-10T11:56:57;144775.72;;;12.94;55.98
8280;BME280;8335;42.646;23.380;2023-04-10T11:59:24;144622.56;;;12.31;55.20
8280;BME280;8335;42.646;23.380;2023-04-10T12:01:52;144554.09;;;12.03;56.90
8280;BME280;8335;42.646;23.380;2023-04-10T12:04:22;144494.34;;;11.79;58.35
8280;BME280;8335;42.646;23.380;2023-04-10T12:06:51;144425.91;;;11.51;59.97
8280;BME280;8335;42.646;23.380;2023-04-10T12:09:20;144408.47;;;11.44;61.64
8280;BME280;8335;42.646;23.380;2023-04-10T12:11:51;144389.81;;;11.36;62.91
8280;BME280;8335;42.646;23.380;2023-04-10T12:14:19;144383.56;;;11.34;64.28
8280;BME280;8335;42.646;23.380;2023-04-10T12:16:46;144346.28;;;11.18;67.66
8280;BME280;8335;42.646;23.380;2023-04-10T12:19:14;144295.28;;;10.97;71.07
8280;BME280;8335;42.646;23.380;2023-04-10T12:21:43;144210.72;;;10.63;74.36
8280;BME280;8335;42.646;23.380;2023-04-10T12:24:10;144211.97;;;10.63;75.06
8280;BME280;8335;42.646;23.380;2023-04-10T12:26:46;144211.97;;;10.63;74.85
8280;BME280;8335;42.646;23.380;2023-04-10T12:29:13;144226.88;;;10.69;74.86
8280;BME280;8335;42.646;23.380;2023-04-10T12:31:39;144215.72;;;10.65;76.36
8280;BME280;8335;42.646;23.380;2023-04-10T12:34:06;144189.59;;;10.54;78.28
8280;BME280;8335;42.646;23.380;2023-04-10T12:36:35;144129.97;;;10.30;79.67
8280;BME280;8335;42.646;23.380;2023-04-10T12:39:03;144127.47;;;10.29;79.22
8280;BME280;8335;42.646;23.380;2023-04-10T12:41:33;144158.50;;;10.41;79.19
8280;BME280;8335;42.646;23.380;2023-04-10T12:44:09;144213.19;;;10.64;77.84
8280;BME280;8335;42.646;23.380;2023-04-10T12:46:37;144267.94;;;10.86;76.60
8280;BME280;8335;42.646;23.380;2023-04-10T12:49:11;144286.59;;;10.94;70.74
8280;BME280;8335;42.646;23.380;2023-04-10T12:51:42;144311.44;;;11.04;68.70
8280;BME280;8335;42.646;23.380;2023-04-10T12:54:09;144307.72;;;11.02;68.94
8280;BME280;8335;42.646;23.380;2023-04-10T12:56:40;144188.34;;;10.54;69.30
8280;BME280;8335;42.646;23.380;2023-04-10T12:59:08;144282.81;;;10.92;69.81
8280;BME280;8335;42.646;23.380;2023-04-10T13:01:36;144254.25;;;10.81;71.12
8280;BME280;8335;42.646;23.380;2023-04-10T13:04:03;144264.19;;;10.85;72.20
8280;BME280;8335;42.646;23.380;2023-04-10T13:06:30;144262.94;;;10.84;71.61
8280;BME280;8335;42.646;23.380;2023-04-10T13:08:57;144266.66;;;10.86;71.37
8280;BME280;8335;42.646;23.380;2023-04-10T13:11:24;144277.88;;;10.90;72.43
8280;BME280;8335;42.646;23.380;2023-04-10T13:13:51;144307.72;;;11.02;72.48
8280;BME280;8335;42.646;23.380;2023-04-10T13:16:19;144357.47;;;11.23;71.80